createdAt,value
2019-03-29T00:00:36.862Z,2.40
2019-03-29T00:03:03.541Z,2.10
2019-03-29T00:05:30.177Z,2.45
2019-03-29T00:07:56.614Z,2.30
2019-03-29T00:10:23.215Z,2.27
2019-03-29T00:12:51.210Z,2.17
2019-03-29T00:15:17.780Z,2.30
2019-03-29T00:17:44.376Z,2.30
2019-03-29T00:20:11.023Z,3.00
2019-03-29T00:22:37.577Z,3.02
2019-03-29T00:25:04.333Z,3.25
2019-03-29T00:27:31.127Z,2.60
2019-03-29T00:29:57.780Z,2.90
2019-03-29T00:32:24.338Z,2.85
2019-03-29T00:34:50.930Z,3.12
2019-03-29T00:37:18.057Z,2.77
2019-03-29T00:39:45.106Z,3.33
2019-03-29T00:42:11.651Z,3.90
2019-03-29T00:44:38.303Z,3.35
2019-03-29T00:47:04.860Z,3.83
2019-03-29T00:49:31.539Z,3.40
2019-03-29T00:51:58.125Z,2.92
2019-03-29T00:54:24.855Z,2.90
2019-03-29T00:56:51.505Z,3.05
2019-03-29T00:59:17.995Z,3.30
2019-03-29T01:01:44.650Z,3.25
2019-03-29T01:04:11.115Z,2.58
2019-03-29T01:06:39.077Z,2.90
2019-03-29T01:09:06.026Z,3.10
2019-03-29T01:11:32.532Z,2.85
2019-03-29T01:13:59.120Z,2.85
2019-03-29T01:16:25.658Z,2.55
2019-03-29T01:18:52.216Z,3.00
2019-03-29T01:21:18.805Z,2.90
2019-03-29T01:23:45.464Z,2.60
2019-03-29T01:26:12.052Z,2.87
2019-03-29T01:28:38.946Z,3.35
2019-03-29T01:31:05.539Z,2.85
2019-03-29T01:33:32.093Z,2.65
2019-03-29T01:35:58.671Z,3.02
2019-03-29T01:38:25.321Z,2.60
2019-03-29T01:40:52.017Z,2.60
2019-03-29T01:43:18.759Z,2.72
2019-03-29T01:45:45.921Z,2.52
2019-03-29T01:48:12.653Z,2.50
2019-03-29T01:50:39.166Z,2.98
2019-03-29T01:53:06.740Z,2.72
2019-03-29T01:55:33.406Z,2.33
2019-03-29T01:57:59.944Z,2.42
2019-03-29T02:00:33.237Z,2.60
2019-03-29T02:02:59.898Z,2.30
2019-03-29T02:05:27.697Z,2.60
2019-03-29T02:07:55.405Z,2.45
2019-03-29T02:10:22.771Z,2.67
2019-03-29T02:12:49.656Z,2.70
2019-03-29T02:15:16.299Z,2.37
2019-03-29T02:17:42.890Z,2.52
2019-03-29T02:20:09.464Z,2.65
2019-03-29T02:22:37.127Z,2.67
2019-03-29T02:25:05.379Z,2.77
2019-03-29T02:27:32.038Z,2.20
2019-03-29T02:29:58.802Z,2.10
2019-03-29T02:32:25.620Z,2.62
2019-03-29T02:34:52.258Z,3.00
2019-03-29T02:37:18.749Z,2.58
2019-03-29T02:39:45.349Z,2.20
2019-03-29T02:42:14.760Z,2.50
2019-03-29T02:44:41.313Z,2.70
2019-03-29T02:47:07.880Z,2.50
2019-03-29T02:49:34.433Z,2.70
2019-03-29T02:52:01.022Z,2.62
2019-03-29T02:54:27.528Z,2.87
2019-03-29T02:56:54.095Z,2.72
2019-03-29T02:59:20.552Z,2.50
2019-03-29T03:01:47.180Z,2.67
2019-03-29T03:04:14.039Z,2.62
2019-03-29T03:06:40.792Z,2.45
2019-03-29T03:09:13.727Z,2.80
2019-03-29T03:11:35.732Z,3.12
2019-03-29T03:14:02.285Z,2.15
2019-03-29T03:16:28.884Z,2.55
2019-03-29T03:18:55.354Z,2.77
2019-03-29T03:21:21.897Z,2.42
2019-03-29T03:23:48.640Z,2.70
2019-03-29T03:26:15.073Z,2.45
2019-03-29T03:28:41.719Z,2.80
2019-03-29T03:31:08.188Z,2.67
2019-03-29T03:33:34.731Z,2.92
2019-03-29T03:36:01.208Z,2.58
2019-03-29T03:38:27.786Z,2.55
2019-03-29T03:40:54.347Z,3.02
2019-03-29T03:43:21.038Z,2.98
2019-03-29T03:45:47.596Z,2.75
2019-03-29T03:48:14.254Z,2.90
2019-03-29T03:50:41.312Z,2.83
2019-03-29T03:53:08.889Z,3.10
2019-03-29T03:55:38.846Z,2.50
2019-03-29T03:58:06.128Z,2.92
2019-03-29T04:00:36.483Z,2.85
2019-03-29T04:03:03.093Z,3.05
2019-03-29T04:05:29.672Z,3.45
2019-03-29T04:07:56.227Z,2.80
2019-03-29T04:10:22.800Z,2.70
2019-03-29T04:12:49.470Z,2.90
2019-03-29T04:15:16.025Z,2.98
2019-03-29T04:17:42.485Z,3.25
2019-03-29T04:20:09.082Z,2.90
2019-03-29T04:22:35.654Z,2.50
2019-03-29T04:25:04.305Z,3.15
2019-03-29T04:27:31.125Z,3.17
2019-03-29T04:29:57.690Z,3.52
2019-03-29T04:32:24.143Z,3.33
2019-03-29T04:34:50.721Z,3.80
2019-03-29T04:37:17.362Z,3.55
2019-03-29T04:39:43.926Z,3.20
2019-03-29T04:42:10.524Z,4.03
2019-03-29T04:44:37.078Z,4.65
2019-03-29T04:47:03.702Z,3.98
2019-03-29T04:49:30.192Z,4.60
2019-03-29T04:51:56.694Z,3.47
2019-03-29T04:54:23.235Z,3.42
2019-03-29T04:56:49.708Z,3.40
2019-03-29T04:59:16.278Z,3.80
2019-03-29T05:01:42.966Z,3.60
2019-03-29T05:04:09.507Z,3.52
2019-03-29T05:06:36.064Z,3.27
2019-03-29T05:09:04.383Z,3.83
2019-03-29T05:11:31.086Z,3.42
2019-03-29T05:13:57.663Z,3.60
2019-03-29T05:16:24.246Z,3.90
2019-03-29T05:18:50.811Z,3.35
2019-03-29T05:21:17.508Z,3.30
2019-03-29T05:23:44.203Z,3.17
2019-03-29T05:26:10.851Z,2.67
2019-03-29T05:28:37.387Z,3.65
2019-03-29T05:31:03.977Z,3.70
2019-03-29T05:33:30.782Z,3.35
2019-03-29T05:35:57.439Z,3.33
2019-03-29T05:38:23.918Z,3.65
2019-03-29T05:40:50.554Z,4.00
2019-03-29T05:43:17.136Z,4.35
2019-03-29T05:45:43.684Z,4.97
2019-03-29T05:48:10.149Z,4.53
2019-03-29T05:50:36.981Z,5.70
2019-03-29T05:53:03.736Z,5.10
2019-03-29T05:55:32.831Z,4.72
2019-03-29T05:57:58.885Z,4.85
2019-03-29T06:00:25.382Z,4.67
2019-03-29T06:02:51.971Z,4.87
2019-03-29T06:05:18.507Z,4.78
2019-03-29T06:07:45.245Z,4.12
2019-03-29T06:10:11.945Z,4.95
2019-03-29T06:12:38.515Z,4.53
2019-03-29T06:15:05.197Z,5.33
2019-03-29T06:17:31.707Z,4.92
2019-03-29T06:19:58.276Z,7.67
2019-03-29T06:22:24.959Z,4.58
2019-03-29T06:24:51.451Z,5.42
2019-03-29T06:27:18.178Z,6.17
2019-03-29T06:29:44.745Z,8.33
2019-03-29T06:32:11.308Z,6.90
2019-03-29T06:34:37.752Z,6.72
2019-03-29T06:37:04.492Z,5.78
2019-03-29T06:39:31.341Z,5.25
2019-03-29T06:41:57.818Z,4.78
2019-03-29T06:44:24.251Z,4.95
2019-03-29T06:46:50.828Z,5.05
2019-03-29T06:49:17.402Z,4.58
2019-03-29T06:51:43.957Z,4.78
2019-03-29T06:54:10.611Z,4.92
2019-03-29T06:56:37.108Z,5.30
2019-03-29T06:59:03.832Z,4.83
2019-03-29T07:01:30.823Z,5.03
2019-03-29T07:03:57.387Z,4.67
2019-03-29T07:06:23.962Z,4.90
2019-03-29T07:08:50.401Z,5.60
2019-03-29T07:11:18.146Z,5.40
2019-03-29T07:13:56.560Z,5.15
2019-03-29T07:16:13.162Z,5.25
2019-03-29T07:18:39.643Z,5.60
2019-03-29T07:21:15.706Z,5.28
2019-03-29T07:23:34.659Z,5.55
2019-03-29T07:26:01.214Z,5.50
2019-03-29T07:28:27.908Z,5.20
2019-03-29T07:30:54.583Z,5.33
2019-03-29T07:33:21.444Z,5.90
2019-03-29T07:35:48.008Z,4.62
2019-03-29T07:38:15.607Z,5.37
2019-03-29T07:40:42.272Z,5.35
2019-03-29T07:43:08.969Z,5.30
2019-03-29T07:45:35.609Z,5.53
2019-03-29T07:48:02.247Z,5.60
2019-03-29T07:50:28.877Z,4.95
2019-03-29T07:52:55.530Z,5.28
2019-03-29T07:55:22.097Z,4.83
2019-03-29T07:57:48.799Z,4.90
2019-03-29T08:00:15.680Z,5.22
2019-03-29T08:02:43.328Z,5.53
2019-03-29T08:05:10.122Z,5.30
2019-03-29T08:07:36.776Z,4.85
2019-03-29T08:10:04.650Z,4.92
2019-03-29T08:12:31.407Z,5.15
2019-03-29T08:14:58.166Z,5.28
2019-03-29T08:17:24.621Z,4.95
2019-03-29T08:20:12.914Z,4.95
2019-03-29T08:22:20.665Z,5.20
2019-03-29T08:24:47.236Z,5.00
2019-03-29T08:27:13.810Z,5.15
2019-03-29T08:29:40.360Z,4.75
2019-03-29T08:32:07.036Z,4.80
2019-03-29T08:34:35.915Z,4.67
2019-03-29T08:37:02.282Z,4.83
2019-03-29T08:39:28.914Z,4.47
2019-03-29T08:42:00.336Z,4.97
2019-03-29T08:44:23.966Z,4.50
2019-03-29T08:46:50.866Z,4.80
2019-03-29T08:49:17.483Z,4.47
2019-03-29T08:51:44.018Z,4.60
2019-03-29T08:54:10.676Z,4.60
2019-03-29T08:56:37.704Z,4.42
2019-03-29T08:59:04.408Z,5.15
2019-03-29T09:01:31.259Z,5.53
2019-03-29T09:04:05.129Z,5.15
2019-03-29T09:06:26.404Z,4.75
2019-03-29T09:08:53.101Z,4.75
2019-03-29T09:11:19.580Z,4.70
2019-03-29T09:13:46.062Z,5.00
2019-03-29T09:16:12.638Z,5.08
2019-03-29T09:18:39.333Z,5.03
2019-03-29T09:21:05.805Z,5.40
2019-03-29T09:23:32.499Z,5.03
2019-03-29T09:25:59.104Z,5.75
2019-03-29T09:28:25.655Z,5.92
2019-03-29T09:30:52.309Z,5.28
2019-03-29T09:33:18.912Z,5.67
2019-03-29T09:35:45.512Z,5.28
2019-03-29T09:38:11.971Z,4.83
2019-03-29T09:40:38.625Z,4.78
2019-03-29T09:43:08.033Z,5.12
2019-03-29T09:45:33.878Z,4.80
2019-03-29T09:48:00.611Z,4.92
2019-03-29T09:50:27.061Z,4.78
2019-03-29T09:52:53.666Z,5.80
2019-03-29T09:55:20.331Z,5.37
2019-03-29T09:57:46.895Z,5.30
2019-03-29T10:00:20.953Z,5.70
2019-03-29T10:02:42.040Z,5.53
2019-03-29T10:05:10.518Z,5.30
2019-03-29T10:07:37.081Z,5.17
2019-03-29T10:10:04.823Z,4.78
2019-03-29T10:12:42.748Z,4.70
2019-03-29T10:14:59.899Z,5.20
2019-03-29T10:17:26.482Z,5.25
2019-03-29T10:19:53.143Z,5.60
2019-03-29T10:22:19.796Z,5.03
2019-03-29T10:24:46.400Z,5.15
2019-03-29T10:27:12.956Z,4.90
2019-03-29T10:29:39.438Z,5.03
2019-03-29T10:32:09.252Z,5.00
2019-03-29T10:34:37.370Z,4.70
2019-03-29T10:37:02.919Z,5.15
2019-03-29T10:39:31.601Z,5.00
2019-03-29T10:41:58.067Z,5.28
2019-03-29T10:44:24.622Z,4.47
2019-03-29T10:46:51.272Z,5.75
2019-03-29T10:49:17.926Z,5.03
2019-03-29T10:51:44.525Z,4.62
2019-03-29T10:54:11.022Z,4.42
2019-03-29T10:56:37.491Z,4.55
2019-03-29T10:59:03.958Z,4.03
2019-03-29T11:01:30.676Z,4.87
2019-03-29T11:03:57.338Z,5.00
2019-03-29T11:06:28.069Z,5.40
2019-03-29T11:08:54.568Z,4.50
2019-03-29T11:11:21.203Z,4.87
2019-03-29T11:13:47.845Z,4.97
2019-03-29T11:16:14.350Z,4.53
2019-03-29T11:18:40.905Z,5.30
2019-03-29T11:21:07.420Z,4.90
2019-03-29T11:23:34.298Z,4.58
2019-03-29T11:26:00.951Z,4.70
2019-03-29T11:28:27.716Z,5.17
2019-03-29T11:30:55.288Z,5.28
2019-03-29T11:33:21.939Z,5.33
2019-03-29T11:35:48.593Z,5.58
2019-03-29T11:38:15.265Z,5.42
2019-03-29T11:40:44.795Z,5.90
2019-03-29T11:43:11.187Z,5.47
2019-03-29T11:45:37.960Z,5.47
2019-03-29T11:48:08.759Z,5.15
2019-03-29T11:50:33.102Z,4.67
2019-03-29T11:52:59.798Z,4.22
2019-03-29T11:55:26.510Z,4.00
2019-03-29T11:57:55.848Z,5.30
2019-03-29T12:00:32.770Z,5.58
2019-03-29T12:02:59.460Z,4.83
2019-03-29T12:05:26.015Z,5.35
2019-03-29T12:07:52.587Z,5.60
2019-03-29T12:10:19.309Z,6.55
2019-03-29T12:12:45.862Z,5.47
2019-03-29T12:15:12.640Z,5.35
2019-03-29T12:17:39.291Z,5.28
2019-03-29T12:20:06.125Z,4.55
2019-03-29T12:22:32.687Z,5.12
2019-03-29T12:24:59.368Z,5.20
2019-03-29T12:27:26.006Z,5.20
2019-03-29T12:29:52.470Z,7.60
2019-03-29T12:32:19.149Z,7.12
2019-03-29T12:34:45.713Z,7.33
2019-03-29T12:37:12.299Z,6.97
2019-03-29T12:39:38.840Z,6.80
2019-03-29T12:42:07.295Z,7.50
2019-03-29T12:44:33.790Z,7.10
2019-03-29T12:47:00.248Z,8.60
2019-03-29T12:49:26.887Z,8.03
2019-03-29T12:51:53.465Z,7.72
2019-03-29T12:54:20.134Z,7.10
2019-03-29T12:56:46.849Z,7.50
2019-03-29T12:59:13.574Z,7.00
2019-03-29T13:01:40.529Z,7.35
2019-03-29T13:04:09.729Z,7.20
2019-03-29T13:06:35.547Z,7.33
2019-03-29T13:09:02.523Z,6.70
2019-03-29T13:11:29.921Z,6.87
2019-03-29T13:14:09.557Z,6.30
2019-03-29T13:16:27.421Z,7.87
2019-03-29T13:18:53.771Z,7.00
2019-03-29T13:21:20.500Z,6.53
2019-03-29T13:23:47.142Z,6.87
2019-03-29T13:26:13.727Z,7.50
2019-03-29T13:28:40.176Z,7.03
2019-03-29T13:31:08.193Z,7.15
2019-03-29T13:33:34.728Z,7.17
2019-03-29T13:36:01.145Z,7.00
2019-03-29T13:38:27.811Z,7.50
2019-03-29T13:40:54.502Z,6.40
2019-03-29T13:43:21.152Z,7.00
2019-03-29T13:45:47.816Z,7.42
2019-03-29T13:48:14.400Z,6.90
2019-03-29T13:50:42.340Z,7.05
2019-03-29T13:53:08.966Z,6.95
2019-03-29T13:55:35.646Z,6.47
2019-03-29T13:58:02.519Z,7.50
2019-03-29T14:00:29.235Z,6.90
2019-03-29T14:02:56.083Z,6.33
2019-03-29T14:05:22.764Z,6.37
2019-03-29T14:07:49.435Z,6.80
2019-03-29T14:10:16.027Z,7.20
2019-03-29T14:12:42.557Z,7.30
2019-03-29T14:15:09.978Z,7.03
2019-03-29T14:17:36.543Z,6.28
2019-03-29T14:20:05.040Z,6.87
2019-03-29T14:22:31.694Z,6.70
2019-03-29T14:24:58.276Z,6.58
2019-03-29T14:27:25.036Z,6.70
2019-03-29T14:30:03.680Z,6.40
2019-03-29T14:32:20.899Z,5.65
2019-03-29T14:34:48.749Z,7.10
2019-03-29T14:37:15.417Z,6.60
2019-03-29T14:39:41.964Z,6.95
2019-03-29T14:42:08.558Z,7.35
2019-03-29T14:44:35.077Z,6.15
2019-03-29T14:47:01.620Z,7.47
2019-03-29T14:49:28.140Z,7.03
2019-03-29T14:51:54.911Z,6.33
2019-03-29T14:54:21.355Z,6.40
2019-03-29T14:56:47.959Z,6.50
2019-03-29T14:59:14.613Z,6.90
2019-03-29T15:01:41.180Z,6.60
2019-03-29T15:04:09.552Z,6.65
2019-03-29T15:06:36.091Z,6.70
2019-03-29T15:09:04.960Z,7.75
2019-03-29T15:11:31.794Z,7.08
2019-03-29T15:13:58.562Z,7.40
2019-03-29T15:16:25.128Z,6.85
2019-03-29T15:18:51.623Z,7.05
2019-03-29T15:21:18.086Z,6.83
2019-03-29T15:23:44.637Z,6.67
2019-03-29T15:26:11.103Z,6.42
2019-03-29T15:28:37.913Z,6.40
2019-03-29T15:31:04.477Z,6.40
2019-03-29T15:33:31.383Z,5.90
2019-03-29T15:35:57.957Z,6.15
2019-03-29T15:38:24.462Z,5.85
2019-03-29T15:40:51.052Z,6.10
2019-03-29T15:43:17.601Z,5.83
2019-03-29T15:45:44.107Z,6.67
2019-03-29T15:48:10.759Z,6.40
2019-03-29T15:50:37.606Z,6.37
2019-03-29T15:53:04.317Z,6.37
2019-03-29T15:55:30.995Z,5.53
2019-03-29T15:57:57.550Z,6.03
2019-03-29T16:00:24.203Z,6.65
2019-03-29T16:02:50.877Z,6.62
2019-03-29T16:05:17.334Z,6.28
2019-03-29T16:07:43.936Z,6.53
2019-03-29T16:10:10.781Z,5.87
2019-03-29T16:12:37.412Z,6.20
2019-03-29T16:15:05.234Z,5.90
2019-03-29T16:17:31.731Z,6.90
2019-03-29T16:19:58.288Z,6.35
2019-03-29T16:22:24.728Z,5.58
2019-03-29T16:24:51.347Z,5.33
2019-03-29T16:27:18.004Z,4.72
2019-03-29T16:29:44.575Z,6.03
2019-03-29T16:32:11.251Z,5.90
2019-03-29T16:34:37.923Z,5.72
2019-03-29T16:37:04.485Z,5.55
2019-03-29T16:39:31.242Z,5.62
2019-03-29T16:41:57.895Z,5.50
2019-03-29T16:44:24.665Z,5.45
2019-03-29T16:46:51.257Z,5.37
2019-03-29T16:49:18.080Z,5.22
2019-03-29T16:51:44.648Z,4.47
2019-03-29T16:54:14.273Z,4.72
2019-03-29T16:56:41.596Z,4.87
2019-03-29T16:59:08.173Z,4.15
2019-03-29T17:01:34.904Z,4.00
2019-03-29T17:04:01.817Z,3.87
2019-03-29T17:06:28.395Z,4.10
2019-03-29T17:08:54.848Z,4.12
2019-03-29T17:11:21.425Z,3.90
2019-03-29T17:13:48.958Z,4.70
2019-03-29T17:16:29.405Z,4.85
2019-03-29T17:18:44.196Z,4.47
2019-03-29T17:21:11.009Z,4.28
2019-03-29T17:23:37.555Z,4.47
2019-03-29T17:26:04.520Z,4.90
2019-03-29T17:28:31.012Z,5.20
2019-03-29T17:30:59.616Z,4.53
2019-03-29T17:33:26.108Z,4.25
2019-03-29T17:35:52.625Z,4.10
2019-03-29T17:38:19.695Z,4.75
2019-03-29T17:40:46.250Z,4.15
2019-03-29T17:43:14.626Z,4.80
2019-03-29T17:45:41.714Z,4.35
2019-03-29T17:48:08.257Z,5.58
2019-03-29T17:50:35.296Z,4.80
2019-03-29T17:53:01.988Z,5.45
2019-03-29T17:55:31.642Z,4.80
2019-03-29T17:57:57.285Z,5.40
2019-03-29T18:00:26.164Z,5.33
2019-03-29T18:02:53.045Z,5.15
2019-03-29T18:05:20.211Z,5.55
2019-03-29T18:07:47.109Z,5.12
2019-03-29T18:10:13.632Z,5.20
2019-03-29T18:12:40.458Z,5.12
2019-03-29T18:15:07.097Z,6.17
2019-03-29T18:17:33.733Z,6.37
2019-03-29T18:20:00.379Z,6.47
2019-03-29T18:22:27.094Z,6.20
2019-03-29T18:24:53.667Z,5.28
2019-03-29T18:27:20.275Z,5.55
2019-03-29T18:29:47.130Z,6.28
2019-03-29T18:32:13.718Z,5.37
2019-03-29T18:34:41.755Z,5.42
2019-03-29T18:37:08.669Z,5.17
2019-03-29T18:39:35.214Z,5.92
2019-03-29T18:42:01.890Z,5.25
2019-03-29T18:44:28.464Z,6.20
2019-03-29T18:46:55.152Z,5.58
2019-03-29T18:49:21.725Z,5.40
2019-03-29T18:51:49.319Z,5.78
2019-03-29T18:54:16.069Z,6.12
2019-03-29T18:56:42.800Z,5.90
2019-03-29T18:59:09.266Z,5.78
2019-03-29T19:01:36.024Z,6.80
2019-03-29T19:04:02.589Z,7.95
2019-03-29T19:06:29.552Z,7.78
2019-03-29T19:08:56.237Z,7.42
2019-03-29T19:11:22.695Z,7.90
2019-03-29T19:13:49.663Z,9.08
2019-03-29T19:16:16.288Z,9.05
2019-03-29T19:18:42.877Z,10.30
2019-03-29T19:21:09.785Z,10.35
2019-03-29T19:23:36.524Z,9.83
2019-03-29T19:26:03.264Z,8.98
2019-03-29T19:28:29.909Z,9.63
2019-03-29T19:30:56.577Z,9.25
2019-03-29T19:33:23.184Z,7.97
2019-03-29T19:35:49.991Z,6.90
2019-03-29T19:38:16.542Z,6.72
2019-03-29T19:40:43.373Z,7.15
2019-03-29T19:43:10.282Z,6.85
2019-03-29T19:45:36.943Z,6.53
2019-03-29T19:48:03.482Z,6.15
2019-03-29T19:50:30.080Z,6.20
2019-03-29T19:52:59.030Z,6.55
2019-03-29T19:55:25.811Z,6.25
2019-03-29T19:57:52.452Z,7.15
2019-03-29T20:00:23.050Z,6.83
2019-03-29T20:02:49.769Z,6.60
2019-03-29T20:05:26.457Z,7.22
2019-03-29T20:07:53.887Z,6.70
2019-03-29T20:10:20.714Z,7.17
2019-03-29T20:12:47.601Z,7.75
2019-03-29T20:15:15.337Z,6.83
2019-03-29T20:17:42.460Z,6.25
2019-03-29T20:20:13.812Z,6.30
2019-03-29T20:22:40.549Z,7.20
2019-03-29T20:25:07.169Z,8.33
2019-03-29T20:27:33.821Z,8.30
2019-03-29T20:30:00.366Z,8.08
2019-03-29T20:32:27.489Z,9.25
2019-03-29T20:34:54.185Z,8.20
2019-03-29T20:37:21.509Z,7.87
2019-03-29T20:39:48.091Z,7.60
2019-03-29T20:42:14.588Z,7.70
2019-03-29T20:44:41.246Z,7.45
2019-03-29T20:47:07.875Z,7.25
2019-03-29T20:49:34.481Z,7.95
2019-03-29T20:52:00.943Z,7.87
2019-03-29T20:54:27.706Z,7.15
2019-03-29T20:56:54.374Z,7.37
2019-03-29T20:59:21.079Z,7.12
2019-03-29T21:01:47.872Z,7.42
2019-03-29T21:04:14.665Z,8.23
2019-03-29T21:06:42.798Z,8.38
2019-03-29T21:09:09.469Z,8.53
2019-03-29T21:11:36.388Z,7.95
2019-03-29T21:14:03.788Z,8.50
2019-03-29T21:16:30.746Z,8.50
2019-03-29T21:18:57.424Z,8.05
2019-03-29T21:21:23.991Z,8.53
2019-03-29T21:23:50.623Z,8.90
2019-03-29T21:26:17.512Z,9.08
2019-03-29T21:28:44.083Z,9.03
2019-03-29T21:31:11.025Z,10.63
2019-03-29T21:33:40.549Z,9.13
2019-03-29T21:36:06.164Z,9.30
2019-03-29T21:38:33.005Z,9.28
2019-03-29T21:41:00.347Z,9.30
2019-03-29T21:43:27.140Z,9.50
2019-03-29T21:45:53.795Z,8.80
2019-03-29T21:48:28.721Z,9.43
2019-03-29T21:50:48.672Z,8.58
2019-03-29T21:53:15.153Z,9.40
2019-03-29T21:55:41.748Z,9.13
2019-03-29T21:58:08.556Z,7.87
2019-03-29T22:00:35.200Z,8.55
2019-03-29T22:03:01.954Z,8.35
2019-03-29T22:05:28.528Z,9.28
2019-03-29T22:07:55.290Z,8.73
2019-03-29T22:10:21.783Z,8.25
2019-03-29T22:12:48.344Z,8.75
2019-03-29T22:15:15.010Z,8.70
2019-03-29T22:17:44.557Z,7.95
2019-03-29T22:20:11.199Z,8.25
2019-03-29T22:22:39.255Z,9.05
2019-03-29T22:25:06.906Z,8.20
2019-03-29T22:27:33.584Z,8.88
2019-03-29T22:30:00.355Z,9.00
2019-03-29T22:32:27.043Z,9.45
2019-03-29T22:34:53.702Z,9.50
2019-03-29T22:37:20.449Z,9.20
2019-03-29T22:39:47.269Z,9.93
2019-03-29T22:42:13.877Z,9.33
2019-03-29T22:44:40.323Z,9.18
2019-03-29T22:47:06.878Z,8.98
2019-03-29T22:49:33.617Z,9.15
2019-03-29T22:52:00.263Z,8.60
2019-03-29T22:54:26.771Z,8.53
2019-03-29T22:56:53.349Z,8.83
2019-03-29T22:59:20.001Z,8.63
2019-03-29T23:01:46.619Z,9.33
2019-03-29T23:04:14.059Z,8.30
2019-03-29T23:06:40.712Z,8.60
2019-03-29T23:09:07.401Z,8.83
2019-03-29T23:11:34.159Z,9.03
2019-03-29T23:14:00.885Z,8.45
2019-03-29T23:16:30.273Z,8.48
2019-03-29T23:19:06.513Z,8.35
2019-03-29T23:21:24.358Z,8.53
2019-03-29T23:23:50.930Z,8.85
2019-03-29T23:26:17.724Z,9.18
2019-03-29T23:28:44.271Z,8.43
2019-03-29T23:31:10.975Z,8.88
2019-03-29T23:33:37.508Z,9.75
2019-03-29T23:36:04.183Z,9.38
2019-03-29T23:38:30.739Z,9.85
2019-03-29T23:40:57.293Z,9.45
2019-03-29T23:43:23.875Z,9.03
2019-03-29T23:45:50.454Z,9.10
2019-03-29T23:48:17.104Z,8.40
2019-03-29T23:50:43.759Z,9.18
2019-03-29T23:53:10.436Z,8.40
2019-03-29T23:55:37.634Z,9.35
2019-03-29T23:58:04.213Z,9.05
